createdAt,value
2022-10-24T00:01:35.534Z,100876.44
2022-10-24T00:04:03.371Z,100883.94
2022-10-24T00:06:32.500Z,100879.34
2022-10-24T00:09:00.153Z,100883.09
2022-10-24T00:11:28.554Z,100883.97
2022-10-24T00:13:56.798Z,100891.97
2022-10-24T00:16:24.424Z,100894.03
2022-10-24T00:18:53.608Z,100896.78
2022-10-24T00:21:21.628Z,100902.75
2022-10-24T00:23:55.773Z,100896.28
2022-10-24T00:26:23.320Z,100897.50
2022-10-24T00:28:52.558Z,100894.25
2022-10-24T00:31:24.459Z,100895.78
2022-10-24T00:33:52.160Z,100893.72
2022-10-24T00:36:21.757Z,100898.16
2022-10-24T00:38:51.641Z,100907.19
2022-10-24T00:41:24.867Z,100909.03
2022-10-24T00:44:13.778Z,100908.69
2022-10-24T00:47:02.083Z,100898.97
2022-10-24T00:49:32.375Z,100912.44
2022-10-24T00:52:04.380Z,100902.09
2022-10-24T00:54:32.165Z,100907.53
2022-10-24T00:57:18.433Z,100903.28
2022-10-24T00:59:50.915Z,100899.38
2022-10-24T01:02:18.585Z,100898.50
2022-10-24T01:04:48.552Z,100902.94
2022-10-24T01:07:23.711Z,100890.69
2022-10-24T01:10:16.638Z,100891.22
2022-10-24T01:12:50.210Z,100893.06
2022-10-24T01:15:26.868Z,100896.31
2022-10-24T01:18:01.727Z,100902.09
2022-10-24T01:20:44.787Z,100902.28
2022-10-24T01:23:40.769Z,100910.94
2022-10-24T01:26:45.906Z,100905.69
2022-10-24T01:30:00.441Z,100912.19
2022-10-24T01:32:41.170Z,100919.84
2022-10-24T01:35:14.860Z,100916.09
2022-10-24T01:38:09.343Z,100923.22
2022-10-24T01:40:50.937Z,100931.94
2022-10-24T01:43:22.637Z,100920.50
2022-10-24T01:45:53.803Z,100927.34
2022-10-24T01:48:22.056Z,100936.16
2022-10-24T01:50:50.181Z,100932.59
2022-10-24T01:53:22.521Z,100934.13
2022-10-24T01:55:52.764Z,100938.22
2022-10-24T01:58:20.390Z,100938.22
2022-10-24T02:00:48.390Z,100935.16
2022-10-24T02:03:23.512Z,100940.75
2022-10-24T02:05:54.205Z,100940.28
2022-10-24T02:08:31.231Z,100944.00
2022-10-24T02:11:01.733Z,100945.72
2022-10-24T02:13:35.113Z,100947.06
2022-10-24T02:16:05.171Z,100939.09
2022-10-24T02:18:33.331Z,100944.69
2022-10-24T02:21:39.585Z,100941.28
2022-10-24T02:24:17.421Z,100943.00
2022-10-24T02:26:52.552Z,100941.28
2022-10-24T02:29:40.526Z,100942.34
2022-10-24T02:32:11.454Z,100939.25
2022-10-24T02:34:39.348Z,100938.91
2022-10-24T02:37:06.987Z,100948.13
2022-10-24T02:39:34.577Z,100940.63
2022-10-24T02:42:03.071Z,100937.91
2022-10-24T02:44:30.728Z,100938.25
2022-10-24T02:46:59.698Z,100939.63
2022-10-24T02:49:28.259Z,100933.97
2022-10-24T02:51:56.782Z,100939.44
2022-10-24T02:54:24.824Z,100937.72
2022-10-24T02:56:53.454Z,100936.72
2022-10-24T02:59:21.035Z,100933.81
2022-10-24T03:01:48.687Z,100938.56
2022-10-24T03:04:16.680Z,100937.56
2022-10-24T03:06:44.347Z,100935.50
2022-10-24T03:09:15.379Z,100934.31
2022-10-24T03:11:43.024Z,100930.25
2022-10-24T03:14:11.113Z,100925.81
2022-10-24T03:16:39.861Z,100927.34
2022-10-24T03:19:08.620Z,100929.53
2022-10-24T03:21:36.967Z,100940.63
2022-10-24T03:24:04.929Z,100939.56
2022-10-24T03:26:34.641Z,100938.22
2022-10-24T03:29:02.368Z,100938.22
2022-10-24T03:31:31.776Z,100937.38
2022-10-24T03:33:59.377Z,100936.84
2022-10-24T03:36:27.558Z,100947.06
2022-10-24T03:38:55.265Z,100944.66
2022-10-24T03:41:22.854Z,100937.84
2022-10-24T03:43:51.252Z,100953.16
2022-10-24T03:46:19.731Z,100941.94
2022-10-24T03:48:47.393Z,100940.56
2022-10-24T03:51:15.815Z,100948.72
2022-10-24T03:53:43.487Z,100946.66
2022-10-24T03:56:11.359Z,100949.22
2022-10-24T03:58:38.976Z,100952.81
2022-10-24T04:01:06.785Z,100955.19
2022-10-24T04:03:34.408Z,100962.88
2022-10-24T04:06:02.047Z,100956.56
2022-10-24T04:08:31.835Z,100963.00
2022-10-24T04:11:00.996Z,100971.50
2022-10-24T04:13:31.708Z,100979.47
2022-10-24T04:16:01.189Z,100979.66
2022-10-24T04:18:29.516Z,100976.59
2022-10-24T04:20:57.186Z,100981.00
2022-10-24T04:23:25.761Z,100983.91
2022-10-24T04:25:53.766Z,100987.47
2022-10-24T04:28:21.514Z,100983.56
2022-10-24T04:30:57.259Z,100986.63
2022-10-24T04:33:25.011Z,100989.50
2022-10-24T04:35:52.711Z,100995.97
2022-10-24T04:38:20.612Z,100989.34
2022-10-24T04:40:52.606Z,100990.53
2022-10-24T04:43:20.702Z,100990.84
2022-10-24T04:45:48.443Z,100994.59
2022-10-24T04:48:16.219Z,101000.69
2022-10-24T04:50:45.175Z,101014.84
2022-10-24T04:53:14.261Z,101017.91
2022-10-24T04:55:43.292Z,101015.00
2022-10-24T04:58:10.963Z,101021.84
2022-10-24T05:00:39.565Z,101024.59
2022-10-24T05:03:07.153Z,101032.44
2022-10-24T05:05:35.240Z,101035.69
2022-10-24T05:08:03.334Z,101036.22
2022-10-24T05:10:33.198Z,101040.47
2022-10-24T05:13:14.283Z,101043.34
2022-10-24T05:15:43.786Z,101056.47
2022-10-24T05:18:11.542Z,101055.63
2022-10-24T05:23:09.649Z,101059.53
2022-10-24T05:25:37.237Z,101058.50
2022-10-24T05:28:05.936Z,101076.91
2022-10-24T05:30:34.130Z,101067.34
2022-10-24T05:33:01.962Z,101083.19
2022-10-24T05:35:29.974Z,101095.75
2022-10-24T05:37:57.592Z,101098.38
2022-10-24T05:40:25.300Z,101095.84
2022-10-24T05:42:53.284Z,101096.88
2022-10-24T05:45:21.240Z,101095.31
2022-10-24T05:47:49.151Z,101104.03
2022-10-24T05:50:17.391Z,101106.88
2022-10-24T05:52:47.141Z,101118.78
2022-10-24T05:55:17.896Z,101106.88
2022-10-24T05:57:46.332Z,101111.63
2022-10-24T06:00:15.207Z,101120.13
2022-10-24T06:02:43.356Z,101122.81
2022-10-24T06:05:11.610Z,101121.91
2022-10-24T06:07:39.791Z,101118.88
2022-10-24T06:10:10.597Z,101121.44
2022-10-24T06:12:39.539Z,101117.78
2022-10-24T06:15:08.740Z,101129.75
2022-10-24T06:17:36.486Z,101127.22
2022-10-24T06:20:04.704Z,101124.31
2022-10-24T06:22:33.080Z,101129.97
2022-10-24T06:25:01.757Z,101125.16
2022-10-24T06:27:29.583Z,101129.72
2022-10-24T06:29:59.153Z,101127.81
2022-10-24T06:32:27.001Z,101136.31
2022-10-24T06:34:54.582Z,101148.31
2022-10-24T06:37:23.044Z,101133.94
2022-10-24T06:39:50.581Z,101145.97
2022-10-24T06:42:18.196Z,101164.63
2022-10-24T06:44:46.373Z,101173.06
2022-10-24T06:47:14.061Z,101169.34
2022-10-24T06:49:42.989Z,101178.09
2022-10-24T06:52:11.050Z,101177.19
2022-10-24T06:54:43.899Z,101169.47
2022-10-24T06:57:11.536Z,101174.81
2022-10-24T06:59:39.091Z,101171.41
2022-10-24T07:02:07.248Z,101175.56
2022-10-24T07:04:35.240Z,101170.38
2022-10-24T07:07:03.463Z,101169.34
2022-10-24T07:09:31.189Z,101165.09
2022-10-24T07:11:59.584Z,101169.91
2022-10-24T07:14:30.203Z,101190.00
2022-10-24T07:16:59.666Z,101179.34
2022-10-24T07:19:27.302Z,101172.00
2022-10-24T07:21:55.544Z,101185.31
2022-10-24T07:24:23.286Z,101189.81
2022-10-24T07:26:50.990Z,101177.66
2022-10-24T07:29:22.888Z,101192.31
2022-10-24T07:31:50.790Z,101188.44
2022-10-24T07:34:18.506Z,101184.56
2022-10-24T07:36:46.309Z,101185.34
2022-10-24T07:39:14.309Z,101187.44
2022-10-24T07:41:43.162Z,101174.53
2022-10-24T07:44:11.431Z,101191.97
2022-10-24T07:46:43.162Z,101199.72
2022-10-24T07:49:13.197Z,101191.38
2022-10-24T07:51:41.786Z,101170.50
2022-10-24T07:54:09.835Z,101187.38
2022-10-24T07:56:37.957Z,101177.69
2022-10-24T07:59:09.409Z,101194.50
2022-10-24T08:01:41.725Z,101203.16
2022-10-24T08:04:10.439Z,101208.47
2022-10-24T08:06:38.168Z,101200.91
2022-10-24T08:09:06.238Z,101207.78
2022-10-24T08:11:34.528Z,101208.44
2022-10-24T08:14:02.656Z,101200.03
2022-10-24T08:16:30.552Z,101210.72
2022-10-24T08:18:58.342Z,101203.91
2022-10-24T08:21:26.939Z,101204.84
2022-10-24T08:23:55.870Z,101215.69
2022-10-24T08:26:24.750Z,101200.28
2022-10-24T08:28:52.530Z,101196.88
2022-10-24T08:31:21.642Z,101203.44
2022-10-24T08:33:51.275Z,101225.97
2022-10-24T08:36:23.734Z,101205.66
2022-10-24T08:38:51.889Z,101211.84
2022-10-24T08:41:30.060Z,101212.63
2022-10-24T08:44:01.003Z,101209.91
2022-10-24T08:46:44.408Z,101218.72
2022-10-24T08:49:29.556Z,101226.28
2022-10-24T08:52:01.160Z,101221.00
2022-10-24T08:54:39.383Z,101235.28
2022-10-24T08:57:06.956Z,101250.84
2022-10-24T08:59:36.279Z,101242.25
2022-10-24T09:02:26.040Z,101244.25
2022-10-24T09:04:57.556Z,101251.72
2022-10-24T09:07:29.353Z,101245.06
2022-10-24T09:10:45.041Z,101231.63
2022-10-24T09:13:14.740Z,101246.97
2022-10-24T09:15:45.284Z,101256.72
2022-10-24T09:18:24.857Z,101245.56
2022-10-24T09:20:54.657Z,101252.53
2022-10-24T09:23:26.375Z,101252.00
2022-10-24T09:26:00.616Z,101247.41
2022-10-24T09:28:38.329Z,101255.06
2022-10-24T09:31:20.259Z,101248.53
2022-10-24T09:33:49.524Z,101262.03
2022-10-24T09:36:20.302Z,101246.25
2022-10-24T09:38:49.351Z,101261.53
2022-10-24T09:41:22.753Z,101257.66
2022-10-24T09:43:56.979Z,101260.63
2022-10-24T09:46:29.440Z,101256.94
2022-10-24T09:49:04.128Z,101262.94
2022-10-24T09:51:41.383Z,101263.63
2022-10-24T09:54:21.424Z,101269.81
2022-10-24T09:56:55.103Z,101258.28
2022-10-24T09:59:44.457Z,101255.31
2022-10-24T10:02:20.165Z,101266.97
2022-10-24T10:04:49.516Z,101272.34
2022-10-24T10:07:19.277Z,101263.34
2022-10-24T10:10:00.587Z,101266.44
2022-10-24T10:12:34.901Z,101278.03
2022-10-24T10:15:23.545Z,101279.19
2022-10-24T10:18:05.847Z,101287.03
2022-10-24T10:20:43.082Z,101288.59
2022-10-24T10:23:17.671Z,101280.75
2022-10-24T10:25:45.551Z,101283.56
2022-10-24T10:28:23.545Z,101284.94
2022-10-24T10:30:56.037Z,101281.94
2022-10-24T10:36:20.059Z,101297.97
2022-10-24T10:38:58.002Z,101275.59
2022-10-24T10:41:40.262Z,101289.09
2022-10-24T10:44:20.853Z,101271.56
2022-10-24T10:47:04.497Z,101291.44
2022-10-24T10:49:40.812Z,101286.53
2022-10-24T10:52:26.092Z,101292.75
2022-10-24T10:55:02.773Z,101282.47
2022-10-24T10:57:36.857Z,101282.63
2022-10-24T11:00:31.196Z,101274.28
2022-10-24T11:03:17.605Z,101276.13
2022-10-24T11:06:09.120Z,101279.16
2022-10-24T11:08:44.746Z,101274.47
2022-10-24T11:11:17.825Z,101265.81
2022-10-24T11:13:50.141Z,101274.25
2022-10-24T11:16:22.944Z,101287.00
2022-10-24T11:18:52.225Z,101278.63
2022-10-24T11:21:21.391Z,101274.69
2022-10-24T11:24:01.890Z,101270.50
2022-10-24T11:26:42.533Z,101275.28
2022-10-24T11:29:35.245Z,101274.72
2022-10-24T11:34:43.181Z,101272.44
2022-10-24T11:37:39.397Z,101272.00
2022-10-24T11:40:12.166Z,101277.38
2022-10-24T11:43:07.570Z,101273.19
2022-10-24T11:45:53.886Z,101277.13
2022-10-24T11:48:42.678Z,101265.75
2022-10-24T11:51:42.490Z,101277.25
2022-10-24T11:54:32.212Z,101256.22
2022-10-24T11:59:46.840Z,101274.34
2022-10-24T12:02:49.153Z,101266.59
2022-10-24T12:05:46.265Z,101262.38
2022-10-24T12:08:34.290Z,101275.00
2022-10-24T12:11:12.798Z,101265.09
2022-10-24T12:14:11.182Z,101275.06
2022-10-24T12:17:00.921Z,101275.03
2022-10-24T12:19:29.071Z,101274.41
2022-10-24T12:22:01.781Z,101273.34
2022-10-24T12:24:34.722Z,101271.03
2022-10-24T12:27:04.191Z,101266.75
2022-10-24T12:29:33.858Z,101259.75
2022-10-24T12:32:33.337Z,101271.03
2022-10-24T12:35:28.854Z,101269.31
2022-10-24T12:37:50.317Z,101281.13
2022-10-24T12:40:45.351Z,101280.19
2022-10-24T12:43:32.655Z,101291.38
2022-10-24T12:46:21.641Z,101303.72
2022-10-24T12:48:59.260Z,101292.69
2022-10-24T12:51:36.571Z,101293.81
2022-10-24T12:54:13.642Z,101285.78
2022-10-24T12:56:50.469Z,101286.19
2022-10-24T12:59:21.869Z,101287.00
2022-10-24T13:01:50.796Z,101292.50
2022-10-24T13:05:06.516Z,101298.53
2022-10-24T13:07:46.114Z,101292.94
2022-10-24T13:10:31.977Z,101300.00
2022-10-24T13:13:11.922Z,101316.53
2022-10-24T13:15:43.421Z,101316.00
2022-10-24T13:18:35.874Z,101317.09
2022-10-24T13:21:16.548Z,101314.22
2022-10-24T13:23:46.274Z,101316.19
2022-10-24T13:26:47.544Z,101322.28
2022-10-24T13:29:23.966Z,101326.00
2022-10-24T13:31:53.309Z,101323.78
2022-10-24T13:34:24.062Z,101326.91
2022-10-24T13:37:12.820Z,101324.63
2022-10-24T13:39:49.784Z,101334.84
2022-10-24T13:42:24.703Z,101330.81
2022-10-24T13:44:54.880Z,101328.72
2022-10-24T13:47:43.374Z,101330.44
2022-10-24T13:50:25.208Z,101329.31
2022-10-24T13:52:58.052Z,101334.72
2022-10-24T13:55:29.730Z,101325.69
2022-10-24T13:58:00.899Z,101328.97
2022-10-24T14:00:30.986Z,101323.97
2022-10-24T14:03:01.037Z,101328.44
2022-10-24T14:05:35.205Z,101324.97
2022-10-24T14:08:02.989Z,101324.97
2022-10-24T14:10:31.298Z,101331.53
2022-10-24T14:12:59.315Z,101331.91
2022-10-24T14:15:33.121Z,101332.28
2022-10-24T14:18:13.302Z,101319.53
2022-10-24T14:20:41.167Z,101313.97
2022-10-24T14:23:38.057Z,101308.38
2022-10-24T14:26:08.041Z,101307.94
2022-10-24T14:28:45.135Z,101307.44
2022-10-24T14:31:31.255Z,101298.09
2022-10-24T14:33:58.956Z,101302.56
2022-10-24T14:36:31.532Z,101298.09
2022-10-24T14:39:01.130Z,101306.31
2022-10-24T14:41:40.935Z,101304.59
2022-10-24T14:44:08.626Z,101310.44
2022-10-24T14:46:38.113Z,101309.44
2022-10-24T14:49:38.245Z,101312.91
2022-10-24T14:52:36.695Z,101306.69
2022-10-24T14:55:13.700Z,101311.50
2022-10-24T14:57:46.695Z,101313.38
2022-10-24T15:00:20.652Z,101317.34
2022-10-24T15:02:49.438Z,101324.59
2022-10-24T15:05:20.003Z,101317.31
2022-10-24T15:08:09.164Z,101315.59
2022-10-24T15:10:41.611Z,101317.38
2022-10-24T15:13:25.621Z,101332.09
2022-10-24T15:15:58.140Z,101336.06
2022-10-24T15:18:30.870Z,101346.56
2022-10-24T15:21:01.983Z,101347.94
2022-10-24T15:23:35.438Z,101351.38
2022-10-24T15:26:20.766Z,101365.53
2022-10-24T15:29:12.781Z,101374.50
2022-10-24T15:31:42.288Z,101377.22
2022-10-24T15:34:20.040Z,101372.53
2022-10-24T15:36:48.986Z,101377.13
2022-10-24T15:39:22.361Z,101374.59
2022-10-24T15:41:51.119Z,101383.81
2022-10-24T15:44:26.703Z,101377.84
2022-10-24T15:46:55.088Z,101368.25
2022-10-24T15:49:22.768Z,101367.97
2022-10-24T15:51:50.752Z,101365.41
2022-10-24T15:54:21.928Z,101363.03
2022-10-24T15:56:50.548Z,101360.00
2022-10-24T15:59:20.308Z,101360.72
2022-10-24T16:01:58.207Z,101361.94
2022-10-24T16:04:26.992Z,101362.13
2022-10-24T16:06:56.100Z,101355.38
2022-10-24T16:09:27.744Z,101361.31
2022-10-24T16:11:55.327Z,101362.47
2022-10-24T16:14:26.273Z,101371.19
2022-10-24T16:16:55.367Z,101371.31
2022-10-24T16:19:25.924Z,101361.88
2022-10-24T16:21:58.535Z,101379.50
2022-10-24T16:24:26.904Z,101391.47
2022-10-24T16:26:55.271Z,101384.31
2022-10-24T16:29:22.944Z,101372.50
2022-10-24T16:31:51.173Z,101382.94
2022-10-24T16:34:19.032Z,101383.34
2022-10-24T16:36:47.967Z,101388.97
2022-10-24T16:39:16.540Z,101387.66
2022-10-24T16:41:46.367Z,101398.75
2022-10-24T16:44:20.109Z,101400.16
2022-10-24T16:46:48.813Z,101397.41
2022-10-24T16:49:21.186Z,101399.31
2022-10-24T16:51:49.683Z,101398.19
2022-10-24T16:54:19.596Z,101406.00
2022-10-24T16:56:53.385Z,101405.34
2022-10-24T16:59:21.682Z,101405.88
2022-10-24T17:01:49.534Z,101406.22
2022-10-24T17:04:17.244Z,101402.47
2022-10-24T17:06:46.204Z,101401.97
2022-10-24T17:09:14.719Z,101398.91
2022-10-24T17:11:46.453Z,101395.38
2022-10-24T17:14:14.763Z,101399.50
2022-10-24T17:16:43.130Z,101399.75
2022-10-24T17:19:17.419Z,101398.06
2022-10-24T17:21:48.985Z,101396.72
2022-10-24T17:24:18.259Z,101382.72
2022-10-24T17:26:46.029Z,101384.28
2022-10-24T17:29:25.115Z,101378.13
2022-10-24T17:31:54.238Z,101389.59
2022-10-24T17:34:22.625Z,101379.66
2022-10-24T17:36:54.578Z,101377.44
2022-10-24T17:41:57.582Z,101372.94
2022-10-24T17:44:25.596Z,101386.03
2022-10-24T17:46:57.431Z,101378.47
2022-10-24T17:49:27.160Z,101379.47
2022-10-24T17:51:54.812Z,101366.81
2022-10-24T17:54:22.580Z,101366.09
2022-10-24T17:56:50.395Z,101377.91
2022-10-24T17:59:18.040Z,101388.06
2022-10-24T18:01:45.737Z,101380.91
2022-10-24T18:04:13.735Z,101384.13
2022-10-24T18:06:43.465Z,101383.91
2022-10-24T18:09:11.793Z,101402.75
2022-10-24T18:11:40.491Z,101412.88
2022-10-24T18:14:08.351Z,101423.28
2022-10-24T18:16:38.237Z,101423.97
2022-10-24T18:19:07.451Z,101420.94
2022-10-24T18:21:36.450Z,101414.81
2022-10-24T18:24:06.348Z,101409.38
2022-10-24T18:26:34.569Z,101416.13
2022-10-24T18:29:02.220Z,101413.41
2022-10-24T18:31:30.525Z,101412.19
2022-10-24T18:34:04.782Z,101409.78
2022-10-24T18:36:36.549Z,101425.72
2022-10-24T18:39:04.800Z,101429.63
2022-10-24T18:42:05.898Z,101427.50
2022-10-24T18:44:35.098Z,101426.50
2022-10-24T18:47:04.545Z,101423.63
2022-10-24T18:49:33.850Z,101420.38
2022-10-24T18:52:10.473Z,101427.38
2022-10-24T18:54:59.966Z,101415.47
2022-10-24T18:57:31.945Z,101420.03
2022-10-24T19:00:00.130Z,101428.94
2022-10-24T19:02:32.240Z,101424.69
2022-10-24T19:05:18.797Z,101423.59
2022-10-24T19:07:47.332Z,101415.50
2022-10-24T19:10:20.716Z,101411.66
2022-10-24T19:12:49.834Z,101417.31
2022-10-24T19:15:18.196Z,101423.81
2022-10-24T19:18:06.235Z,101416.56
2022-10-24T19:20:35.735Z,101412.19
2022-10-24T19:23:07.593Z,101416.66
2022-10-24T19:25:35.483Z,101421.16
2022-10-24T19:28:03.973Z,101422.69
2022-10-24T19:30:31.801Z,101423.59
2022-10-24T19:33:01.034Z,101420.94
2022-10-24T19:35:28.664Z,101418.38
2022-10-24T19:37:56.728Z,101428.78
2022-10-24T19:40:24.478Z,101433.06
2022-10-24T19:42:52.658Z,101430.53
2022-10-24T19:45:22.877Z,101432.09
2022-10-24T19:47:56.011Z,101433.13
2022-10-24T19:50:24.049Z,101430.22
2022-10-24T19:52:52.030Z,101436.22
2022-10-24T19:55:19.666Z,101444.06
2022-10-24T19:57:47.614Z,101436.72
2022-10-24T20:00:15.631Z,101436.25
2022-10-24T20:02:43.687Z,101441.69
2022-10-24T20:05:11.536Z,101447.81
2022-10-24T20:07:39.219Z,101451.22
2022-10-24T20:10:08.804Z,101456.03
2022-10-24T20:12:36.753Z,101456.38
2022-10-24T20:15:05.274Z,101436.13
2022-10-24T20:17:32.984Z,101438.66
2022-10-24T20:20:00.783Z,101442.06
2022-10-24T20:22:29.151Z,101433.72
2022-10-24T20:24:57.838Z,101440.00
2022-10-24T20:27:25.556Z,101440.00
2022-10-24T20:29:53.419Z,101431.50
2022-10-24T20:32:21.204Z,101427.59
2022-10-24T20:34:48.863Z,101421.13
2022-10-24T20:37:17.106Z,101424.34
2022-10-24T20:39:44.762Z,101417.53
2022-10-24T20:42:12.384Z,101415.84
2022-10-24T20:44:41.273Z,101417.53
2022-10-24T20:47:08.877Z,101421.97
2022-10-24T20:49:36.444Z,101421.13
2022-10-24T20:52:04.161Z,101418.56
2022-10-24T20:54:32.025Z,101428.28
2022-10-24T20:56:59.872Z,101425.06
2022-10-24T20:59:27.563Z,101436.97
2022-10-24T21:01:55.364Z,101427.41
2022-10-24T21:04:23.139Z,101430.84
2022-10-24T21:06:50.741Z,101421.28
2022-10-24T21:09:18.799Z,101420.44
2022-10-24T21:11:50.863Z,101426.75
2022-10-24T21:14:20.820Z,101433.94
2022-10-24T21:16:49.919Z,101431.03
2022-10-24T21:19:17.796Z,101425.38
2022-10-24T21:21:46.104Z,101420.13
2022-10-24T21:24:15.120Z,101418.22
2022-10-24T21:26:43.069Z,101421.28
2022-10-24T21:31:58.596Z,101419.41
2022-10-24T21:34:27.797Z,101418.91
2022-10-24T21:36:59.161Z,101429.47
2022-10-24T21:39:26.809Z,101432.06
2022-10-24T21:41:54.406Z,101429.31
2022-10-24T21:44:23.486Z,101416.38
2022-10-24T21:46:52.174Z,101423.53
2022-10-24T21:49:20.855Z,101417.56
2022-10-24T21:51:48.649Z,101420.44
2022-10-24T21:54:19.227Z,101421.84
2022-10-24T21:56:47.140Z,101428.13
2022-10-24T21:59:16.482Z,101434.63
2022-10-24T22:01:45.168Z,101435.84
2022-10-24T22:04:13.454Z,101437.19
2022-10-24T22:06:42.992Z,101438.72
2022-10-24T22:09:13.053Z,101440.44
2022-10-24T22:11:41.903Z,101432.22
2022-10-24T22:14:10.710Z,101434.25
2022-10-24T22:16:40.687Z,101434.63
2022-10-24T22:19:08.497Z,101443.84
2022-10-24T22:21:37.846Z,101434.13
2022-10-24T22:26:35.214Z,101431.19
2022-10-24T22:29:03.034Z,101425.72
2022-10-24T22:31:31.844Z,101423.84
2022-10-24T22:33:59.669Z,101424.38
2022-10-24T22:37:01.454Z,101430.00
2022-10-24T22:39:29.354Z,101435.84
2022-10-24T22:41:57.321Z,101432.72
2022-10-24T22:44:25.209Z,101434.25
2022-10-24T22:47:19.821Z,101433.44
2022-10-24T22:49:59.992Z,101446.22
2022-10-24T22:52:28.229Z,101440.59
2022-10-24T22:54:57.080Z,101446.03
2022-10-24T22:57:25.217Z,101443.84
2022-10-24T22:59:53.049Z,101442.13
2022-10-24T23:02:27.860Z,101441.97
2022-10-24T23:04:58.457Z,101436.66
2022-10-24T23:07:42.809Z,101450.69
2022-10-24T23:10:11.533Z,101450.69
2022-10-24T23:12:42.405Z,101445.38
2022-10-24T23:15:13.646Z,101448.63
2022-10-24T23:17:41.582Z,101442.50
2022-10-24T23:20:17.297Z,101439.91
2022-10-24T23:22:46.697Z,101439.72
2022-10-24T23:25:18.942Z,101431.34
2022-10-24T23:27:47.099Z,101436.47
2022-10-24T23:30:17.372Z,101428.81
2022-10-24T23:32:46.164Z,101441.25
2022-10-24T23:35:14.468Z,101439.56
2022-10-24T23:37:43.962Z,101433.59
2022-10-24T23:40:11.758Z,101434.78
2022-10-24T23:42:39.546Z,101433.44
2022-10-24T23:45:12.829Z,101428.13
2022-10-24T23:47:59.109Z,101424.91
2022-10-24T23:50:34.697Z,101426.44
2022-10-24T23:53:23.936Z,101430.00
2022-10-24T23:55:51.973Z,101414.13
2022-10-24T23:58:19.648Z,101412.59
